createdAt,value
2018-03-22T00:00:44.871Z,1037.28
2018-03-22T00:01:44.858Z,1037.23
2018-03-22T00:02:44.846Z,1037.21
2018-03-22T00:03:44.833Z,1037.18
2018-03-22T00:04:44.820Z,1037.19
2018-03-22T00:05:44.807Z,1037.15
2018-03-22T00:06:44.794Z,1037.16
2018-03-22T00:07:44.781Z,1037.13
2018-03-22T00:08:44.771Z,1037.07
2018-03-22T00:09:44.756Z,1037.09
2018-03-22T00:10:44.748Z,1037.04
2018-03-22T00:11:44.730Z,1037.05
2018-03-22T00:12:44.717Z,1036.99
2018-03-22T00:13:44.705Z,1037.02
2018-03-22T00:14:44.694Z,1037.01
2018-03-22T00:15:44.678Z,1036.94
2018-03-22T00:16:44.668Z,1036.98
2018-03-22T00:17:44.674Z,1036.98
2018-03-22T00:18:44.639Z,1036.97
2018-03-22T00:19:44.628Z,1036.98
2018-03-22T00:20:44.613Z,1036.98
2018-03-22T00:21:44.602Z,1036.99
2018-03-22T00:22:44.588Z,1036.99
2018-03-22T00:23:44.575Z,1037
2018-03-22T00:24:44.564Z,1037.03
2018-03-22T00:25:44.551Z,1037.08
2018-03-22T00:26:44.536Z,1037.06
2018-03-22T00:27:44.523Z,1037.02
2018-03-22T00:28:44.512Z,1036.97
2018-03-22T00:29:44.497Z,1036.99
2018-03-22T00:30:44.484Z,1036.93
2018-03-22T00:31:44.472Z,1036.85
2018-03-22T00:32:44.460Z,1036.83
2018-03-22T00:33:44.446Z,1036.86
2018-03-22T00:34:44.434Z,1036.82
2018-03-22T00:35:44.419Z,1036.82
2018-03-22T00:36:44.407Z,1036.83
2018-03-22T00:37:44.395Z,1036.8
2018-03-22T00:38:44.383Z,1036.8
2018-03-22T00:39:44.369Z,1036.71
2018-03-22T00:40:44.356Z,1036.72
2018-03-22T00:41:44.343Z,1036.71
2018-03-22T00:42:44.331Z,1036.7
2018-03-22T00:43:44.318Z,1036.69
2018-03-22T00:44:44.304Z,1036.7
2018-03-22T00:45:44.291Z,1036.72
2018-03-22T00:46:44.279Z,1036.69
2018-03-22T00:47:44.265Z,1036.63
2018-03-22T00:48:44.253Z,1036.69
2018-03-22T00:49:44.241Z,1036.64
2018-03-22T00:50:44.228Z,1036.68
2018-03-22T00:51:44.215Z,1036.73
2018-03-22T00:52:44.201Z,1036.71
2018-03-22T00:53:44.189Z,1036.72
2018-03-22T00:54:44.177Z,1036.71
2018-03-22T00:55:44.163Z,1036.71
2018-03-22T00:56:44.152Z,1036.71
2018-03-22T00:57:44.138Z,1036.77
2018-03-22T00:58:44.125Z,1036.78
2018-03-22T00:59:44.112Z,1036.74
2018-03-22T01:00:44.099Z,1036.7
2018-03-22T01:01:44.086Z,1036.66
2018-03-22T01:02:44.073Z,1036.61
2018-03-22T01:03:44.060Z,1036.54
2018-03-22T01:04:44.048Z,1036.53
2018-03-22T01:05:44.034Z,1036.53
2018-03-22T01:06:44.021Z,1036.48
2018-03-22T01:07:44.009Z,1036.52
2018-03-22T01:08:43.996Z,1036.53
2018-03-22T01:09:43.985Z,1036.52
2018-03-22T01:10:43.982Z,1036.52
2018-03-22T01:11:43.958Z,1036.51
2018-03-22T01:12:43.947Z,1036.49
2018-03-22T01:13:43.930Z,1036.5
2018-03-22T01:14:43.927Z,1036.51
2018-03-22T01:15:43.905Z,1036.47
2018-03-22T01:16:43.893Z,1036.49
2018-03-22T01:17:43.879Z,1036.42
2018-03-22T01:18:43.867Z,1036.4
2018-03-22T01:19:43.854Z,1036.34
2018-03-22T01:20:43.843Z,1036.35
2018-03-22T01:21:43.827Z,1036.31
2018-03-22T01:22:43.816Z,1036.26
2018-03-22T01:23:43.801Z,1036.17
2018-03-22T01:24:43.788Z,1036.13
2018-03-22T01:25:43.775Z,1036.11
2018-03-22T01:26:43.762Z,1036.13
2018-03-22T01:27:43.750Z,1036.11
2018-03-22T01:28:43.736Z,1036.06
2018-03-22T01:29:43.724Z,1036.08
2018-03-22T01:30:43.711Z,1035.99
2018-03-22T01:31:43.705Z,1035.96
2018-03-22T01:32:43.684Z,1035.89
2018-03-22T01:33:43.672Z,1035.84
2018-03-22T01:34:43.660Z,1035.8
2018-03-22T01:35:43.660Z,1035.76
2018-03-22T01:36:43.633Z,1035.8
2018-03-22T01:37:43.620Z,1035.76
2018-03-22T01:38:43.607Z,1035.8
2018-03-22T01:39:43.594Z,1035.78
2018-03-22T01:40:43.581Z,1035.82
2018-03-22T01:41:43.568Z,1035.8
2018-03-22T01:42:43.555Z,1035.83
2018-03-22T01:43:43.541Z,1035.86
2018-03-22T01:44:43.529Z,1035.82
2018-03-22T01:45:43.520Z,1035.75
2018-03-22T01:46:43.503Z,1035.73
2018-03-22T01:47:43.490Z,1035.73
2018-03-22T01:48:43.478Z,1035.8
2018-03-22T01:49:43.464Z,1035.8
2018-03-22T01:50:43.450Z,1035.75
2018-03-22T01:51:43.438Z,1035.77
2018-03-22T01:52:43.426Z,1035.78
2018-03-22T01:53:43.412Z,1035.8
2018-03-22T01:54:43.400Z,1035.79
2018-03-22T01:55:43.386Z,1035.84
2018-03-22T01:56:43.372Z,1035.81
2018-03-22T01:57:43.360Z,1035.81
2018-03-22T01:58:43.347Z,1035.79
2018-03-22T01:59:43.334Z,1035.78
2018-03-22T02:00:43.322Z,1035.74
2018-03-22T02:01:43.308Z,1035.72
2018-03-22T02:02:43.295Z,1035.73
2018-03-22T02:03:43.288Z,1035.71
2018-03-22T02:04:43.268Z,1035.7
2018-03-22T02:05:43.256Z,1035.68
2018-03-22T02:06:43.242Z,1035.66
2018-03-22T02:07:43.229Z,1035.66
2018-03-22T02:08:43.216Z,1035.68
2018-03-22T02:09:43.203Z,1035.64
2018-03-22T02:10:43.192Z,1035.61
2018-03-22T02:11:43.177Z,1035.55
2018-03-22T02:12:43.163Z,1035.56
2018-03-22T02:13:43.153Z,1035.54
2018-03-22T02:14:43.141Z,1035.5
2018-03-22T02:15:43.124Z,1035.46
2018-03-22T02:16:43.112Z,1035.42
2018-03-22T02:17:43.098Z,1035.43
2018-03-22T02:18:43.085Z,1035.39
2018-03-22T02:19:43.071Z,1035.41
2018-03-22T02:20:43.058Z,1035.37
2018-03-22T02:21:43.045Z,1035.31
2018-03-22T02:22:43.031Z,1035.25
2018-03-22T02:23:43.018Z,1035.21
2018-03-22T02:24:43.005Z,1035.21
2018-03-22T02:25:42.992Z,1035.19
2018-03-22T02:26:42.978Z,1035.14
2018-03-22T02:27:42.969Z,1035.11
2018-03-22T02:28:42.952Z,1035.1
2018-03-22T02:29:42.939Z,1035.13
2018-03-22T02:30:42.924Z,1035.05
2018-03-22T02:31:42.915Z,1035
2018-03-22T02:32:42.898Z,1034.93
2018-03-22T02:33:42.885Z,1034.9
2018-03-22T02:34:42.871Z,1034.91
2018-03-22T02:35:42.857Z,1034.95
2018-03-22T02:36:42.845Z,1034.96
2018-03-22T02:37:42.832Z,1034.94
2018-03-22T02:38:42.819Z,1034.85
2018-03-22T02:39:42.804Z,1034.87
2018-03-22T02:40:42.792Z,1034.82
2018-03-22T02:41:42.777Z,1034.79
2018-03-22T02:42:42.825Z,1034.75
2018-03-22T02:43:42.753Z,1034.7
2018-03-22T02:44:42.738Z,1034.7
2018-03-22T02:45:42.725Z,1034.68
2018-03-22T02:46:42.712Z,1034.68
2018-03-22T02:47:42.705Z,1034.67
2018-03-22T02:48:42.685Z,1034.64
2018-03-22T02:49:42.672Z,1034.65
2018-03-22T02:50:42.662Z,1034.61
2018-03-22T02:51:42.646Z,1034.57
2018-03-22T02:52:42.630Z,1034.52
2018-03-22T02:53:42.619Z,1034.48
2018-03-22T02:54:42.607Z,1034.47
2018-03-22T02:55:42.592Z,1034.51
2018-03-22T02:56:42.578Z,1034.51
2018-03-22T02:57:42.565Z,1034.45
2018-03-22T02:58:42.552Z,1034.43
2018-03-22T02:59:42.538Z,1034.39
2018-03-22T03:00:42.524Z,1034.37
2018-03-22T03:01:42.511Z,1034.36
2018-03-22T03:02:42.499Z,1034.36
2018-03-22T03:03:42.485Z,1034.38
2018-03-22T03:04:42.471Z,1034.36
2018-03-22T03:05:42.458Z,1034.31
2018-03-22T03:06:42.444Z,1034.24
2018-03-22T03:07:42.430Z,1034.22
2018-03-22T03:08:42.418Z,1034.21
2018-03-22T03:09:42.404Z,1034.19
2018-03-22T03:10:42.390Z,1034.2
2018-03-22T03:11:42.377Z,1034.21
2018-03-22T03:12:42.364Z,1034.09
2018-03-22T03:13:42.351Z,1034.08
2018-03-22T03:14:42.337Z,1034.08
2018-03-22T03:15:42.325Z,1034.06
2018-03-22T03:16:42.311Z,1034.07
2018-03-22T03:17:42.298Z,1034.05
2018-03-22T03:18:42.284Z,1034.03
2018-03-22T03:19:42.271Z,1034.02
2018-03-22T03:20:42.259Z,1033.98
2018-03-22T03:21:42.244Z,1034
2018-03-22T03:22:42.232Z,1034.02
2018-03-22T03:23:42.218Z,1033.98
2018-03-22T03:24:42.208Z,1033.98
2018-03-22T03:25:42.192Z,1033.97
2018-03-22T03:26:42.185Z,1033.93
2018-03-22T03:27:42.165Z,1033.92
2018-03-22T03:28:42.151Z,1033.89
2018-03-22T03:29:42.138Z,1033.88
2018-03-22T03:30:42.126Z,1033.87
2018-03-22T03:31:42.114Z,1033.86
2018-03-22T03:32:42.098Z,1033.85
2018-03-22T03:33:42.086Z,1033.84
2018-03-22T03:34:42.073Z,1033.82
2018-03-22T03:35:42.060Z,1033.81
2018-03-22T03:36:42.045Z,1033.78
2018-03-22T03:37:42.033Z,1033.81
2018-03-22T03:38:42.020Z,1033.77
2018-03-22T03:39:42.006Z,1033.76
2018-03-22T03:40:41.993Z,1033.72
2018-03-22T03:41:41.982Z,1033.7
2018-03-22T03:42:41.966Z,1033.7
2018-03-22T03:43:41.952Z,1033.73
2018-03-22T03:44:41.939Z,1033.69
2018-03-22T03:45:41.926Z,1033.68
2018-03-22T03:46:41.917Z,1033.67
2018-03-22T03:47:41.900Z,1033.7
2018-03-22T03:48:41.887Z,1033.66
2018-03-22T03:49:41.874Z,1033.65
2018-03-22T03:50:41.860Z,1033.65
2018-03-22T03:51:41.848Z,1033.61
2018-03-22T03:52:41.833Z,1033.6
2018-03-22T03:53:41.826Z,1033.58
2018-03-22T03:54:41.806Z,1033.57
2018-03-22T03:55:41.793Z,1033.55
2018-03-22T03:56:41.782Z,1033.58
2018-03-22T03:57:41.780Z,1033.55
2018-03-22T03:58:41.753Z,1033.52
2018-03-22T03:59:41.740Z,1033.48
2018-03-22T04:00:41.726Z,1033.43
2018-03-22T04:01:41.712Z,1033.43
2018-03-22T04:02:41.699Z,1033.4
2018-03-22T04:03:41.686Z,1033.41
2018-03-22T04:04:41.672Z,1033.37
2018-03-22T04:05:41.660Z,1033.41
2018-03-22T04:06:41.645Z,1033.39
2018-03-22T04:07:41.632Z,1033.33
2018-03-22T04:08:41.618Z,1033.39
2018-03-22T04:09:41.606Z,1033.3
2018-03-22T04:10:41.591Z,1033.25
2018-03-22T04:11:41.579Z,1033.19
2018-03-22T04:12:41.564Z,1033.14
2018-03-22T04:13:41.551Z,1033.19
2018-03-22T04:14:41.538Z,1033.16
2018-03-22T04:15:41.526Z,1033.17
2018-03-22T04:16:41.510Z,1033.18
2018-03-22T04:17:41.497Z,1033.18
2018-03-22T04:18:41.484Z,1033.14
2018-03-22T04:19:41.471Z,1033.13
2018-03-22T04:20:41.457Z,1033.05
2018-03-22T04:21:41.444Z,1033.02
2018-03-22T04:22:41.430Z,1032.98
2018-03-22T04:23:41.416Z,1032.94
2018-03-22T04:24:41.402Z,1032.94
2018-03-22T04:25:41.390Z,1032.95
2018-03-22T04:26:41.376Z,1032.97
2018-03-22T04:27:41.362Z,1033.04
2018-03-22T04:28:41.349Z,1033.04
2018-03-22T04:29:41.336Z,1032.97
2018-03-22T04:30:41.321Z,1032.98
2018-03-22T04:31:41.308Z,1032.93
2018-03-22T04:32:41.295Z,1032.88
2018-03-22T04:33:41.281Z,1032.84
2018-03-22T04:34:41.267Z,1032.79
2018-03-22T04:35:41.297Z,1032.77
2018-03-22T04:36:41.241Z,1032.84
2018-03-22T04:37:41.227Z,1032.85
2018-03-22T04:38:41.213Z,1032.77
2018-03-22T04:39:41.200Z,1032.73
2018-03-22T04:40:41.187Z,1032.78
2018-03-22T04:41:41.172Z,1032.73
2018-03-22T04:42:41.159Z,1032.72
2018-03-22T04:43:41.147Z,1032.7
2018-03-22T04:44:41.133Z,1032.65
2018-03-22T04:45:41.118Z,1032.63
2018-03-22T04:46:41.106Z,1032.62
2018-03-22T04:47:41.092Z,1032.6
2018-03-22T04:48:41.078Z,1032.58
2018-03-22T04:49:41.064Z,1032.6
2018-03-22T04:50:41.051Z,1032.57
2018-03-22T04:51:41.039Z,1032.58
2018-03-22T04:52:41.025Z,1032.6
2018-03-22T04:53:41.010Z,1032.56
2018-03-22T04:54:40.997Z,1032.49
2018-03-22T04:55:40.983Z,1032.55
2018-03-22T04:56:40.970Z,1032.51
2018-03-22T04:57:40.956Z,1032.5
2018-03-22T04:58:40.942Z,1032.46
2018-03-22T04:59:40.930Z,1032.49
2018-03-22T05:00:40.916Z,1032.52
2018-03-22T05:01:40.914Z,1032.47
2018-03-22T05:02:40.889Z,1032.45
2018-03-22T05:03:40.874Z,1032.45
2018-03-22T05:04:40.862Z,1032.42
2018-03-22T05:05:40.848Z,1032.37
2018-03-22T05:06:40.835Z,1032.3
2018-03-22T05:07:40.821Z,1032.3
2018-03-22T05:08:40.807Z,1032.29
2018-03-22T05:09:40.795Z,1032.24
2018-03-22T05:10:40.781Z,1032.25
2018-03-22T05:11:40.766Z,1032.25
2018-03-22T05:12:40.754Z,1032.19
2018-03-22T05:13:40.741Z,1032.16
2018-03-22T05:14:40.730Z,1032.12
2018-03-22T05:15:40.713Z,1032.14
2018-03-22T05:16:40.700Z,1032.16
2018-03-22T05:17:40.687Z,1032.12
2018-03-22T05:18:40.697Z,1032.13
2018-03-22T05:19:40.659Z,1032.13
2018-03-22T05:20:40.646Z,1032.15
2018-03-22T05:21:40.634Z,1032.12
2018-03-22T05:22:40.620Z,1032.09
2018-03-22T05:23:40.609Z,1032.09
2018-03-22T05:24:40.594Z,1032.08
2018-03-22T05:25:40.579Z,1032.01
2018-03-22T05:26:40.566Z,1032.02
2018-03-22T05:27:40.553Z,1032.02
2018-03-22T05:28:40.540Z,1032.01
2018-03-22T05:29:40.526Z,1032.02
2018-03-22T05:30:40.512Z,1032.04
2018-03-22T05:31:40.499Z,1032.03
2018-03-22T05:32:40.485Z,1031.99
2018-03-22T05:33:40.472Z,1031.96
2018-03-22T05:34:40.459Z,1031.88
2018-03-22T05:35:40.446Z,1031.89
2018-03-22T05:36:40.432Z,1031.85
2018-03-22T05:37:40.425Z,1031.86
2018-03-22T05:38:40.406Z,1031.83
2018-03-22T05:39:40.392Z,1031.74
2018-03-22T05:40:40.378Z,1031.73
2018-03-22T05:41:40.365Z,1031.71
2018-03-22T05:42:40.351Z,1031.69
2018-03-22T05:43:40.341Z,1031.66
2018-03-22T05:44:40.324Z,1031.63
2018-03-22T05:45:40.327Z,1031.64
2018-03-22T05:46:40.299Z,1031.6
2018-03-22T05:47:40.284Z,1031.59
2018-03-22T05:48:40.271Z,1031.57
2018-03-22T05:49:40.258Z,1031.57
2018-03-22T05:50:40.245Z,1031.5
2018-03-22T05:51:40.234Z,1031.51
2018-03-22T05:52:40.230Z,1031.44
2018-03-22T05:53:40.208Z,1031.4
2018-03-22T05:54:40.192Z,1031.37
2018-03-22T05:55:40.182Z,1031.34
2018-03-22T05:56:40.170Z,1031.3
2018-03-22T05:57:40.165Z,1031.24
2018-03-22T05:58:40.138Z,1031.23
2018-03-22T05:59:40.127Z,1031.24
2018-03-22T06:00:40.114Z,1031.15
2018-03-22T06:01:40.100Z,1031.17
2018-03-22T06:02:40.086Z,1031.14
2018-03-22T06:03:40.073Z,1031.16
2018-03-22T06:04:40.068Z,1031.24
2018-03-22T06:05:40.053Z,1031.17
2018-03-22T06:06:40.038Z,1031.06
2018-03-22T06:07:40.022Z,1031.14
2018-03-22T06:08:40.014Z,1031.21
2018-03-22T06:09:39.995Z,1031.19
2018-03-22T06:10:39.983Z,1031.27
2018-03-22T06:11:39.970Z,1031.24
2018-03-22T06:12:39.958Z,1031.21
2018-03-22T06:13:39.944Z,1031.19
2018-03-22T06:14:39.939Z,1031.13
2018-03-22T06:15:39.921Z,1031.13
2018-03-22T06:16:39.910Z,1031.18
2018-03-22T06:17:39.893Z,1031.09
2018-03-22T06:18:39.882Z,1031.02
2018-03-22T06:19:39.868Z,1030.98
2018-03-22T06:20:39.861Z,1031
2018-03-22T06:21:39.847Z,1030.89
2018-03-22T06:22:39.830Z,1030.81
2018-03-22T06:23:39.817Z,1030.84
2018-03-22T06:24:39.803Z,1030.85
2018-03-22T06:25:39.803Z,1030.74
2018-03-22T06:26:39.779Z,1030.68
2018-03-22T06:27:39.765Z,1030.59
2018-03-22T06:28:39.753Z,1030.53
2018-03-22T06:29:39.742Z,1030.45
2018-03-22T06:30:39.729Z,1030.4
2018-03-22T06:31:39.715Z,1030.29
2018-03-22T06:32:39.703Z,1030.28
2018-03-22T06:33:39.690Z,1030.19
2018-03-22T06:34:39.679Z,1030.21
2018-03-22T06:35:39.664Z,1030.14
2018-03-22T06:36:39.652Z,1030.15
2018-03-22T06:37:39.640Z,1030.16
2018-03-22T06:38:39.627Z,1030.14
2018-03-22T06:39:39.621Z,1030.1
2018-03-22T06:40:39.602Z,1030.13
2018-03-22T06:41:39.590Z,1030.07
2018-03-22T06:42:39.580Z,1030.03
2018-03-22T06:43:39.565Z,1029.89
2018-03-22T06:44:39.552Z,1029.85
2018-03-22T06:45:39.540Z,1029.73
2018-03-22T06:46:39.527Z,1029.64
2018-03-22T06:47:39.514Z,1029.54
2018-03-22T06:48:39.502Z,1029.46
2018-03-22T06:49:39.504Z,1029.33
2018-03-22T06:50:39.477Z,1029.2
2018-03-22T06:51:39.465Z,1029.17
2018-03-22T06:52:39.455Z,1029.13
2018-03-22T06:53:39.478Z,1028.98
2018-03-22T06:54:39.429Z,1028.93
2018-03-22T06:55:39.417Z,1028.9
2018-03-22T06:56:39.422Z,1028.92
2018-03-22T06:57:39.402Z,1028.84
2018-03-22T06:58:39.382Z,1028.67
2018-03-22T06:59:39.370Z,1028.61
2018-03-22T07:00:39.358Z,1028.57
2018-03-22T07:01:39.347Z,1028.59
2018-03-22T07:02:39.352Z,1028.5
2018-03-22T07:03:39.336Z,1028.55
2018-03-22T07:04:39.312Z,1028.5
2018-03-22T07:05:39.301Z,1028.45
2018-03-22T07:06:39.292Z,1028.5
2018-03-22T07:07:39.277Z,1028.42
2018-03-22T07:08:39.265Z,1028.51
2018-03-22T07:09:39.254Z,1028.46
2018-03-22T07:10:39.244Z,1028.52
2018-03-22T07:11:39.231Z,1028.55
2018-03-22T07:12:39.222Z,1028.51
2018-03-22T07:13:39.209Z,1028.52
2018-03-22T07:14:39.268Z,1028.57
2018-03-22T07:15:39.187Z,1028.62
2018-03-22T07:16:39.184Z,1028.61
2018-03-22T07:17:39.164Z,1028.56
2018-03-22T07:18:39.184Z,1028.7
2018-03-22T07:19:39.141Z,1028.59
2018-03-22T07:20:39.130Z,1028.74
2018-03-22T07:21:39.119Z,1028.67
2018-03-22T07:22:39.107Z,1028.67
2018-03-22T07:23:39.096Z,1028.63
2018-03-22T07:24:39.085Z,1028.6
2018-03-22T07:25:39.074Z,1028.51
2018-03-22T07:26:39.061Z,1028.55
2018-03-22T07:27:39.050Z,1028.54
2018-03-22T07:28:39.040Z,1028.5
2018-03-22T07:29:39.028Z,1028.54
2018-03-22T07:30:39.017Z,1028.34
2018-03-22T07:31:39.006Z,1028.28
2018-03-22T07:32:38.998Z,1028.27
2018-03-22T07:33:38.986Z,1028.1
2018-03-22T07:34:38.972Z,1028.11
2018-03-22T07:35:38.961Z,1028.28
2018-03-22T07:36:38.950Z,1028.32
2018-03-22T07:37:38.938Z,1028.29
2018-03-22T07:38:38.933Z,1028.31
2018-03-22T07:39:38.916Z,1028.32
2018-03-22T07:40:38.906Z,1028.37
2018-03-22T07:41:38.900Z,1028.46
2018-03-22T07:42:38.882Z,1028.43
2018-03-22T07:43:38.871Z,1028.44
2018-03-22T07:44:38.872Z,1028.51
2018-03-22T07:45:38.848Z,1028.48
2018-03-22T07:46:38.838Z,1028.57
2018-03-22T07:47:38.826Z,1028.6
2018-03-22T07:48:38.814Z,1028.67
2018-03-22T07:49:38.806Z,1028.71
2018-03-22T07:50:38.796Z,1028.89
2018-03-22T07:51:38.781Z,1028.79
2018-03-22T07:52:38.835Z,1029.02
2018-03-22T07:53:38.758Z,1029.11
2018-03-22T07:54:38.748Z,1029.19
2018-03-22T07:55:38.739Z,1029.26
2018-03-22T07:56:38.724Z,1029.25
2018-03-22T07:57:38.713Z,1029.33
2018-03-22T07:58:38.702Z,1029.33
2018-03-22T07:59:38.694Z,1029.36
2018-03-22T08:00:38.677Z,1029.46
2018-03-22T08:01:38.665Z,1029.43
2018-03-22T08:02:38.653Z,1029.52
2018-03-22T08:03:38.641Z,1029.45
2018-03-22T08:04:38.629Z,1029.44
2018-03-22T08:05:38.618Z,1029.41
2018-03-22T08:06:38.605Z,1029.35
2018-03-22T08:07:38.593Z,1029.25
2018-03-22T08:08:38.584Z,1029.28
2018-03-22T08:09:38.569Z,1029.17
2018-03-22T08:10:38.556Z,1029.17
2018-03-22T08:11:38.544Z,1029.12
2018-03-22T08:12:38.533Z,1029.13
2018-03-22T08:13:38.519Z,1029.11
2018-03-22T08:14:38.507Z,1029.07
2018-03-22T08:15:38.496Z,1029.06
2018-03-22T08:16:38.483Z,1029.07
2018-03-22T08:17:38.470Z,1029
2018-03-22T08:18:38.458Z,1028.95
2018-03-22T08:19:38.445Z,1028.9
2018-03-22T08:20:38.433Z,1028.88
2018-03-22T08:21:38.420Z,1028.87
2018-03-22T08:22:38.407Z,1028.84
2018-03-22T08:23:38.395Z,1028.81
2018-03-22T08:24:38.382Z,1028.79
2018-03-22T08:25:38.370Z,1028.66
2018-03-22T08:26:38.612Z,1028.67
2018-03-22T08:27:38.346Z,1028.56
2018-03-22T08:28:38.333Z,1028.52
2018-03-22T08:29:38.321Z,1028.46
2018-03-22T08:30:38.309Z,1028.39
2018-03-22T08:31:38.299Z,1028.34
2018-03-22T08:32:38.335Z,1028.21
2018-03-22T08:33:38.273Z,1028.19
2018-03-22T08:34:38.261Z,1028.11
2018-03-22T08:35:38.248Z,1028.09
2018-03-22T08:36:38.235Z,1028.03
2018-03-22T08:37:38.224Z,1027.99
2018-03-22T08:38:38.219Z,1027.99
2018-03-22T08:39:38.198Z,1028
2018-03-22T08:40:38.186Z,1028.08
2018-03-22T08:41:38.176Z,1028.02
2018-03-22T08:42:38.167Z,1028.1
2018-03-22T08:43:38.151Z,1028.24
2018-03-22T08:44:38.138Z,1028.2
2018-03-22T08:45:38.126Z,1028.22
2018-03-22T08:46:38.114Z,1028.22
2018-03-22T08:47:38.118Z,1028.22
2018-03-22T08:48:38.089Z,1028.16
2018-03-22T08:49:38.079Z,1028.17
2018-03-22T08:50:38.077Z,1028.13
2018-03-22T08:51:38.060Z,1028.17
2018-03-22T08:52:38.041Z,1028.2
2018-03-22T08:53:38.028Z,1028.15
2018-03-22T08:54:38.020Z,1028.12
2018-03-22T08:55:38.005Z,1028.11
2018-03-22T08:56:37.993Z,1028.11
2018-03-22T08:57:38.230Z,1028.08
2018-03-22T08:58:38.000Z,1028.05
2018-03-22T08:59:37.965Z,1028.01
2018-03-22T09:00:37.944Z,1027.85
2018-03-22T09:01:37.931Z,1027.81
2018-03-22T09:02:37.920Z,1027.71
2018-03-22T09:03:37.908Z,1027.69
2018-03-22T09:04:37.896Z,1027.65
2018-03-22T09:05:37.882Z,1027.58
2018-03-22T09:06:37.883Z,1027.52
2018-03-22T09:07:37.859Z,1027.43
2018-03-22T09:08:37.863Z,1027.29
2018-03-22T09:09:37.836Z,1027.31
2018-03-22T09:10:37.823Z,1027.26
2018-03-22T09:11:37.815Z,1027.32
2018-03-22T09:12:37.799Z,1027.36
2018-03-22T09:13:37.788Z,1027.38
2018-03-22T09:14:37.776Z,1027.47
2018-03-22T09:15:37.766Z,1027.44
2018-03-22T09:16:37.762Z,1027.39
2018-03-22T09:17:37.745Z,1027.33
2018-03-22T09:18:37.733Z,1027.23
2018-03-22T09:19:37.723Z,1027.16
2018-03-22T09:20:37.718Z,1027.14
2018-03-22T09:21:37.694Z,1027.03
2018-03-22T09:22:37.685Z,1027.06
2018-03-22T09:23:37.975Z,1026.95
2018-03-22T09:24:37.661Z,1026.93
2018-03-22T09:25:37.662Z,1026.85
2018-03-22T09:26:37.638Z,1026.91
2018-03-22T09:27:37.630Z,1026.84
2018-03-22T09:28:37.620Z,1026.82
2018-03-22T09:29:37.613Z,1026.73
2018-03-22T09:30:37.591Z,1026.66
2018-03-22T09:31:37.597Z,1026.58
2018-03-22T09:32:37.573Z,1026.48
2018-03-22T09:33:37.558Z,1026.38
2018-03-22T09:34:37.546Z,1026.36
2018-03-22T09:35:37.551Z,1026.24
2018-03-22T09:36:37.540Z,1026.26
2018-03-22T09:37:37.524Z,1026.09
2018-03-22T09:38:37.546Z,1025.96
2018-03-22T09:39:37.491Z,1025.8
2018-03-22T09:40:37.480Z,1025.7
2018-03-22T09:41:37.470Z,1025.58
2018-03-22T09:42:37.460Z,1025.47
2018-03-22T09:43:37.450Z,1025.49
2018-03-22T09:44:37.441Z,1025.44
2018-03-22T09:45:37.429Z,1025.47
2018-03-22T09:46:37.419Z,1025.51
2018-03-22T09:47:37.406Z,1025.54
2018-03-22T09:48:37.395Z,1025.55
2018-03-22T09:49:37.385Z,1025.55
2018-03-22T09:50:37.420Z,1025.64
2018-03-22T09:51:37.365Z,1025.66
2018-03-22T09:52:37.356Z,1025.7
2018-03-22T09:53:37.347Z,1025.73
2018-03-22T09:54:37.337Z,1025.81
2018-03-22T09:55:37.323Z,1025.91
2018-03-22T09:56:37.348Z,1025.84
2018-03-22T09:57:37.309Z,1025.88
2018-03-22T09:58:37.293Z,1025.88
2018-03-22T09:59:37.286Z,1025.86
2018-03-22T10:00:37.276Z,1025.78
2018-03-22T10:01:37.262Z,1025.79
2018-03-22T10:02:37.252Z,1025.77
2018-03-22T10:03:37.253Z,1025.79
2018-03-22T10:04:37.230Z,1025.87
2018-03-22T10:05:37.220Z,1025.87
2018-03-22T10:06:37.215Z,1025.88
2018-03-22T10:07:37.200Z,1025.94
2018-03-22T10:08:37.190Z,1025.9
2018-03-22T10:09:37.196Z,1025.92
2018-03-22T10:10:37.169Z,1025.95
2018-03-22T10:11:37.159Z,1025.99
2018-03-22T10:12:37.148Z,1025.9
2018-03-22T10:13:37.141Z,1025.92
2018-03-22T10:14:37.128Z,1025.98
2018-03-22T10:15:37.125Z,1026.08
2018-03-22T10:16:37.107Z,1026.09
2018-03-22T10:17:37.096Z,1026.24
2018-03-22T10:18:37.086Z,1026.27
2018-03-22T10:19:37.075Z,1026.32
2018-03-22T10:20:37.067Z,1026.31
2018-03-22T10:21:37.053Z,1026.36
2018-03-22T10:22:37.043Z,1026.37
2018-03-22T10:23:37.033Z,1026.41
2018-03-22T10:24:37.022Z,1026.47
2018-03-22T10:25:37.013Z,1026.47
2018-03-22T10:26:37.000Z,1026.54
2018-03-22T10:27:36.989Z,1026.47
2018-03-22T10:28:36.981Z,1026.53
2018-03-22T10:29:36.974Z,1026.57
2018-03-22T10:30:36.974Z,1026.58
2018-03-22T10:31:36.947Z,1026.58
2018-03-22T10:32:36.941Z,1026.61
2018-03-22T10:33:36.923Z,1026.49
2018-03-22T10:34:36.924Z,1026.58
2018-03-22T10:35:36.901Z,1026.6
2018-03-22T10:36:36.891Z,1026.71
2018-03-22T10:37:36.880Z,1026.72
2018-03-22T10:38:36.893Z,1026.76
2018-03-22T10:39:36.856Z,1026.63
2018-03-22T10:40:36.844Z,1026.57
2018-03-22T10:41:36.834Z,1026.54
2018-03-22T10:42:36.830Z,1026.58
2018-03-22T10:43:36.811Z,1026.68
2018-03-22T10:44:36.799Z,1026.68
2018-03-22T10:45:36.790Z,1026.61
2018-03-22T10:46:36.778Z,1026.43
2018-03-22T10:47:36.765Z,1026.48
2018-03-22T10:48:36.759Z,1026.47
2018-03-22T10:49:36.796Z,1026.55
2018-03-22T10:50:36.735Z,1026.59
2018-03-22T10:51:36.718Z,1026.58
2018-03-22T10:52:36.725Z,1026.58
2018-03-22T10:53:36.698Z,1026.65
2018-03-22T10:54:36.684Z,1026.7
2018-03-22T10:55:36.972Z,1026.6
2018-03-22T10:56:36.686Z,1026.63
2018-03-22T10:57:36.649Z,1026.59
2018-03-22T10:58:36.637Z,1026.62
2018-03-22T10:59:36.633Z,1026.58
2018-03-22T11:00:36.623Z,1026.49
2018-03-22T11:01:36.613Z,1026.46
2018-03-22T11:02:36.599Z,1026.42
2018-03-22T11:03:36.580Z,1026.39
2018-03-22T11:04:36.573Z,1026.4
2018-03-22T11:05:36.554Z,1026.36
2018-03-22T11:06:36.552Z,1026.37
2018-03-22T11:07:36.532Z,1026.41
2018-03-22T11:08:36.520Z,1026.42
2018-03-22T11:09:36.509Z,1026.42
2018-03-22T11:10:36.496Z,1026.35
2018-03-22T11:11:36.491Z,1026.24
2018-03-22T11:12:36.473Z,1026.22
2018-03-22T11:13:36.459Z,1026.14
2018-03-22T11:14:36.448Z,1026.07
2018-03-22T11:15:36.438Z,1025.95
2018-03-22T11:16:36.425Z,1025.86
2018-03-22T11:17:36.414Z,1025.8
2018-03-22T11:18:36.402Z,1025.91
2018-03-22T11:19:36.396Z,1025.9
2018-03-22T11:20:36.386Z,1025.73
2018-03-22T11:21:36.368Z,1025.63
2018-03-22T11:22:36.357Z,1025.62
2018-03-22T11:23:36.349Z,1025.61
2018-03-22T11:24:36.333Z,1025.53
2018-03-22T11:25:36.321Z,1025.48
2018-03-22T11:26:36.320Z,1025.52
2018-03-22T11:27:36.306Z,1025.48
2018-03-22T11:28:36.288Z,1025.33
2018-03-22T11:29:36.290Z,1025.2
2018-03-22T11:30:36.282Z,1025.17
2018-03-22T11:31:36.265Z,1025.03
2018-03-22T11:32:36.261Z,1025.02
2018-03-22T11:33:36.248Z,1024.97
2018-03-22T11:34:36.227Z,1024.95
2018-03-22T11:35:36.217Z,1024.97
2018-03-22T11:36:36.203Z,1024.9
2018-03-22T11:37:36.194Z,1024.88
2018-03-22T11:38:36.180Z,1024.83
2018-03-22T11:39:36.179Z,1024.88
2018-03-22T11:40:36.168Z,1024.78
2018-03-22T11:41:36.163Z,1024.74
2018-03-22T11:42:36.147Z,1024.73
2018-03-22T11:43:36.124Z,1024.68
2018-03-22T11:44:36.134Z,1024.63
2018-03-22T11:45:36.120Z,1024.62
2018-03-22T11:46:36.095Z,1024.6
2018-03-22T11:47:36.084Z,1024.56
2018-03-22T11:48:36.072Z,1024.59
2018-03-22T11:49:36.061Z,1024.61
2018-03-22T11:50:36.049Z,1024.64
2018-03-22T11:51:36.039Z,1024.62
2018-03-22T11:52:36.029Z,1024.61
2018-03-22T11:53:36.023Z,1024.63
2018-03-22T11:54:36.007Z,1024.59
2018-03-22T11:55:36.008Z,1024.53
2018-03-22T11:56:35.989Z,1024.44
2018-03-22T11:57:35.975Z,1024.27
2018-03-22T11:58:35.965Z,1024.24
2018-03-22T11:59:35.956Z,1024.18
2018-03-22T12:00:35.944Z,1024.18
2018-03-22T12:01:35.940Z,1024.16
2018-03-22T12:02:35.923Z,1024.12
2018-03-22T12:03:35.912Z,1024.08
2018-03-22T12:04:35.902Z,1024.05
2018-03-22T12:05:35.892Z,1023.95
2018-03-22T12:06:35.882Z,1024
2018-03-22T12:07:35.875Z,1023.98
2018-03-22T12:08:35.861Z,1023.9